Latest Coastal Weather Observations for Bairnsdale

IDV60701

Issued at 9:41 am EST Monday 25 May 2015 (issued every 10 minutes, with the page automatically refreshed every 10 minutes)

About coastal observations | Map of coastal stations | Coastal observations for VIC | Marine services | Other Formats
Station Details ID: 085279 Name: BAIRNSDALE AIRPORT Lat: -37.88 Lon: 147.57 Height: 49.4 m
Data from the previous 72 hours. | See also: Recent months at Bairnsdale
Date/Time
EST
Temp

°C
Wind Pressure Rain
since 9am
mm
Weather Cloud Vis
km
Sea
Height
m
Swell
Dir
 
Speed
knots
Gust
knots
hPa Trend Height
m
Period
s
Dir
25/09:30am 7.5 NW 7 9 1031.6 - 0.0 - - 10 - - - -
25/09:00am 6.5 NW 7 9 1031.7 - 0.2 - Mostly cloudy 10 - - - -
25/08:30am 4.7 NW 7 9 1031.8 - 0.2 - - 10 - - - -
25/08:00am 4.2 NNW 5 6 1031.4 - 0.2 - - 10 - - - -
25/07:30am 4.1 NNW 4 6 1031.5 - 0.2 - - 10 - - - -
25/07:00am 4.4 NW 7 10 1031.7 - 0.2 - - 10 - - - -
25/06:30am 3.8 WNW 6 7 1031.2 - 0.2 - - 10 - - - -
25/06:00am 3.7 WNW 7 9 1031.2 - 0.2 - Partly cloudy 10 - - - -
25/05:30am 2.6 NNW 5 6 1030.7 - 0.2 - - 10 - - - -
25/05:00am 3.3 NW 3 4 1030.6 - 0.2 - - 10 - - - -
25/04:30am 3.4 WNW 5 6 1030.5 - 0.2 - - 10 - - - -
25/04:00am 2.7 WNW 5 6 1030.8 - 0.2 - - 10 - - - -
25/03:30am 3.8 WNW 5 6 1030.7 - 0.2 - - 10 - - - -
25/03:00am 4.0 WNW 4 5 1030.8 - 0.2 - - 10 - - - -
25/02:30am 3.7 WNW 5 6 1031.0 - 0.2 - - 10 - - - -
25/02:00am 3.7 WNW 7 8 1030.8 - 0.2 - - 10 - - - -
25/01:30am 2.7 NW 4 6 1030.7 - 0.2 - - 10 - - - -
25/01:00am 2.7 WNW 4 6 1030.9 - 0.2 - - 10 - - - -
25/12:54am 2.6 WSW 4 6 1030.8 - 0.2 - - 10 - - - -
25/12:30am 2.7 WSW 5 9 1030.9 - 0.2 - - 3 - - - -
25/12:29am 2.8 WSW 6 9 1030.9 - 0.2 - - 5 - - - -
25/12:00am 3.8 WNW 5 7 1030.9 - 0.2 - - 9 - - - -
 
Date/Time
EST
Temp

°C
Wind Pressure Rain
since 9am
mm
Weather Cloud Vis
km
Sea
Height
m
Swell
Dir
 
Speed
knots
Gust
knots
hPa Trend Height
m
Period
s
Dir
24/11:55pm 3.2 WNW 5 6 1030.9 - 0.2 - - 10 - - - -
24/11:30pm 3.5 W 4 5 1030.8 - 0.2 - - 1 - - - -
24/11:27pm 3.9 WNW 5 6 1030.8 - 0.2 - - 5 - - - -
24/11:15pm 3.6 WNW 5 7 1030.7 - 0.2 - - 10 - - - -
24/11:00pm 3.4 WNW 5 6 1030.7 - 0.2 - - 1 - - - -
24/10:30pm 2.6 NW 5 6 1030.9 - 0.2 - Partly cloudy 0.2 - - - -
24/10:00pm 4.1 NNW 6 7 1030.9 - 0.2 - - 3 - - - -
24/09:32pm 3.4 NW 5 6 1031.1 - 0.2 - - 5 - - - -
24/09:30pm 3.6 NW 5 6 1031.0 - 0.2 - - 8 - - - -
24/09:29pm 3.6 NW 5 6 1031.0 - 0.2 - - 9 - - - -
24/09:16pm 3.1 NW 5 6 1031.0 - 0.2 - - 5 - - - -
24/09:11pm 3.0 NW 5 5 1031.0 - 0.2 - - 6 - - - -
24/09:00pm 3.1 NW 5 5 1031.1 - 0.2 - Mostly clear 6 - - - -
24/08:58pm 3.1 NW 5 5 1031.1 - 0.2 - - 5 - - - -
24/08:57pm 3.1 NW 5 5 1031.1 - 0.2 - - 6 - - - -
24/08:30pm 4.1 NW 3 5 1031.3 - 0.2 - - 1 - - - -
24/08:00pm 3.1 SW 1 3 1031.1 - 0.2 - - 2 - - - -
24/07:36pm 3.9 SW 2 3 1030.9 - 0.2 - - 4 - - - -
24/07:30pm 4.0 SW 3 4 1031.0 - 0.2 - - 10 - - - -
24/07:00pm 3.7 NW 3 4 1031.2 - 0.2 - - 10 - - - -
24/06:30pm 4.7 CALM 0 0 1031.0 - 0.2 - - 10 - - - -
24/06:00pm 5.4 CALM 0 0 1030.8 - 0.2 - - 10 - - - -
24/05:30pm 6.4 SE 1 3 1030.6 - 0.2 - - 10 - - - -
24/05:00pm 8.0 SE 3 4 1030.4 - 0.2 - - 10 - - - -
24/04:30pm 9.8 ESE 5 6 1030.0 - 0.2 - - 10 - - - -
24/04:00pm 11.3 SE 6 8 1030.0 - 0.2 - - 10 - - - -
24/03:30pm 12.6 ESE 4 5 1029.9 - 0.2 - - 10 - - - -
24/03:00pm 13.3 SE 4 5 1030.0 - 0.2 - - 10 - - - -
24/02:30pm 13.5 E 4 6 1030.1 - 0.2 - - 10 - - - -
24/02:00pm 13.7 ENE 4 6 1030.0 - 0.2 - - 10 - - - -
24/01:30pm 13.3 ESE 4 6 1030.2 - 0.2 - - 10 - - - -
24/01:00pm 13.3 ENE 3 5 1030.4 - 0.0 - - 10 - - - -
24/12:30pm 13.0 N 1 3 1030.9 - 0.0 - - 10 - - - -
24/12:00pm 11.4 ESE 3 5 1031.3 - 0.0 - - 10 - - - -
24/11:30am 11.2 E 2 4 1031.6 - 0.0 - - 10 - - - -
24/11:00am 9.9 ENE 1 4 1031.8 - 0.0 - - 10 - - - -
24/10:30am 8.2 NW 1 3 1032.1 - 0.0 - - 10 - - - -
24/10:00am 7.2 N 3 4 1032.1 - 0.0 - - 10 - - - -
24/09:30am 5.5 N 2 3 1032.2 - 0.0 - - 10 - - - -
24/09:00am 3.2 NW 4 5 1032.3 - 0.0 - - 10 - - - -
24/08:30am 2.6 NNW 5 7 1032.0 - 0.0 - - 10 - - - -
24/08:00am 1.8 NW 5 6 1032.1 - 0.0 - - 10 - - - -
24/07:30am 0.3 NW 4 5 1031.9 - 0.0 - - 10 - - - -
24/07:00am 1.4 NNW 4 5 1031.8 - 0.0 - - 10 - - - -
24/06:30am 1.6 NW 4 6 1031.7 - 0.0 - - 10 - - - -
24/06:00am 1.6 NW 5 7 1031.5 - 0.0 - - 10 - - - -
24/05:30am 1.6 NW 5 5 1031.1 - 0.0 - - 8 - - - -
24/05:00am 2.3 NW 5 6 1031.3 - 0.0 - - 10 - - - -
24/04:30am 3.0 NNW 4 5 1031.2 - 0.0 - - 10 - - - -
24/04:00am 3.0 WNW 7 8 1031.2 - 0.0 - - 10 - - - -
24/03:30am 3.0 WNW 8 9 1031.2 - 0.0 - - 10 - - - -
24/03:00am 2.9 WNW 8 9 1031.3 - 0.0 - - 10 - - - -
24/02:30am 3.0 NW 7 9 1031.5 - 0.0 - - 10 - - - -
24/02:00am 2.9 NW 8 9 1031.4 - 0.0 - - 10 - - - -
24/01:30am 2.5 NW 7 8 1031.4 - 0.0 - Partly cloudy 10 - - - -
24/01:03am 3.1 NW 7 9 1031.5 - 0.0 - Cloudy 10 - - - -
24/01:00am 3.2 NW 8 10 1031.5 - 0.0 - Cloudy 10 - - - -
24/12:30am 2.6 NW 6 7 1031.5 - 0.0 - Partly cloudy 1 - - - -
24/12:00am 2.6 NW 7 8 1031.7 - 0.0 - Partly cloudy 0.5 - - - -
 
Date/Time
EST
Temp

°C
Wind Pressure Rain
since 9am
mm
Weather Cloud Vis
km
Sea
Height
m
Swell
Dir
 
Speed
knots
Gust
knots
hPa Trend Height
m
Period
s
Dir
23/11:30pm 3.5 NW 6 7 1031.7 - 0.0 - - 5 - - - -
23/11:00pm 3.0 NW 5 6 1031.5 - 0.0 - - 0.7 - - - -
23/10:54pm 4.2 NNW 5 5 1031.5 - 0.0 - - 4 - - - -
23/10:52pm 4.5 NNW 4 5 1031.5 - 0.0 - - 8 - - - -
23/10:30pm 2.8 WNW 5 6 1031.5 - 0.0 - - 0.6 - - - -
23/10:19pm 3.2 NW 3 5 1031.4 - 0.0 - - 5 - - - -
23/10:17pm 3.8 NW 3 5 1031.4 - 0.0 - - 8 - - - -
23/10:00pm 3.7 W 4 4 1031.3 - 0.0 - - 1 - - - -
23/09:49pm 2.9 W 3 4 1031.4 - 0.0 - - 5 - - - -
23/09:30pm 4.9 WNW 4 6 1031.4 - 0.0 - - 10 - - - -
23/09:00pm 4.3 NW 5 6 1031.3 - 0.0 - - 10 - - - -
23/08:30pm 5.2 NW 7 8 1031.2 - 0.0 - - 10 - - - -
23/08:00pm 5.1 NW 6 7 1031.1 - 0.0 - - 10 - - - -
23/07:30pm 5.8 NW 5 6 1031.1 - 0.0 - - 10 - - - -
23/07:00pm 8.2 W 8 10 1030.9 - 0.0 - - 10 - - - -
23/06:30pm 8.2 WNW 7 9 1030.8 - 0.0 - - 10 - - - -
23/06:00pm 8.6 W 6 8 1030.8 - 0.0 - - 10 - - - -
23/05:30pm 9.2 W 7 9 1030.7 - 0.0 - - 10 - - - -
23/05:00pm 10.0 W 6 8 1030.4 - 0.0 - - 10 - - - -
23/04:30pm 12.0 W 7 10 1030.5 - 0.0 - - 10 - - - -
23/04:00pm 12.9 WSW 8 11 1030.5 - 0.0 - - 10 - - - -
23/03:30pm 13.3 WSW 8 12 1030.5 - 0.0 - Partly cloudy 10 - - - -
23/03:00pm 13.6 W 10 15 1030.4 - 0.0 - Mostly clear 10 - - - -
23/02:30pm 13.5 W 10 13 1030.3 - 0.0 - Partly cloudy 10 - - - -
23/02:00pm 13.3 W 10 14 1030.3 - 0.0 - Partly cloudy 10 - - - -
23/01:30pm 12.9 WSW 9 13 1030.5 - 0.0 - Partly cloudy 10 - - - -
23/01:00pm 13.3 WNW 10 15 1030.8 - 0.0 - Partly cloudy 10 - - - -
23/12:30pm 12.2 W 10 13 1031.1 - 0.0 - Partly cloudy 10 - - - -
23/12:00pm 12.4 W 11 16 1031.6 - 0.0 - Mostly cloudy 10 - - - -
23/11:30am 11.6 WSW 9 13 1032.1 - 0.0 - Cloudy 10 - - - -
23/11:00am 11.2 W 10 15 1032.4 - 0.0 - Cloudy 10 - - - -
23/10:30am 10.8 W 10 14 1032.5 - 0.0 - Cloudy 10 - - - -
23/10:00am 10.4 WNW 8 12 1032.5 - 0.0 - Cloudy 10 - - - -
23/09:30am 9.4 NW 8 11 1032.6 - 0.0 - Cloudy 10 - - - -
23/09:00am 9.2 NW 7 9 1032.5 - 0.0 - Cloudy 10 - - - -
23/08:30am 9.6 WNW 7 9 1032.2 - 0.0 - Cloudy 10 - - - -
23/08:00am 9.2 WNW 7 9 1032.1 - 0.0 - Cloudy 10 - - - -
23/07:30am 9.1 WNW 7 9 1031.9 - 0.0 - Cloudy 10 - - - -
23/07:00am 9.2 WNW 8 10 1031.7 - 0.0 - Cloudy 10 - - - -
23/06:30am 9.1 WNW 7 10 1031.4 - 0.0 - Cloudy 10 - - - -
23/06:00am 9.0 WNW 5 7 1031.2 - 0.0 - Cloudy 10 - - - -
23/05:30am 9.2 W 7 9 1031.1 - 0.0 - Cloudy 10 - - - -
23/05:00am 9.2 W 6 9 1030.8 - 0.0 - Cloudy 10 - - - -
23/04:30am 9.2 WNW 6 9 1030.7 - 0.0 - Cloudy 10 - - - -
23/04:00am 9.3 WNW 6 9 1030.5 - 0.0 - Cloudy 10 - - - -
23/03:30am 9.2 WNW 7 10 1030.4 - 0.0 - Cloudy 10 - - - -
23/03:00am 9.0 WNW 5 7 1030.5 - 0.0 - Cloudy 10 - - - -
23/02:30am 9.0 WNW 6 7 1030.7 - 0.0 - Cloudy 10 - - - -
23/02:00am 9.1 WNW 7 10 1030.8 - 0.0 - Cloudy 10 - - - -
23/01:30am 9.1 WNW 7 9 1030.7 - 0.0 - Cloudy 10 - - - -
23/01:00am 8.7 WNW 7 9 1030.8 - 0.0 - Cloudy 10 - - - -
23/12:30am 8.4 WNW 8 10 1031.0 - 0.0 - Cloudy 10 - - - -
23/12:00am 7.9 WNW 8 11 1031.1 - 0.0 - Partly cloudy 10 - - - -
 
Date/Time
EST
Temp

°C
Wind Pressure Rain
since 9am
mm
Weather Cloud Vis
km
Sea
Height
m
Swell
Dir
 
Speed
knots
Gust
knots
hPa Trend Height
m
Period
s
Dir
22/11:30pm 7.9 W 8 11 1031.2 - 0.0 - Partly cloudy 10 - - - -
22/11:00pm 8.3 W 9 12 1031.0 - 0.0 - Partly cloudy 10 - - - -
22/10:30pm 8.3 WSW 7 12 1030.9 - 0.0 - Partly cloudy 10 - - - -
22/10:00pm 9.4 W 7 9 1031.1 - 0.0 - Partly cloudy 10 - - - -
22/09:30pm 8.8 WSW 8 10 1030.8 - 0.0 - Partly cloudy 10 - - - -
22/09:00pm 8.4 SW 7 9 1030.6 - 0.0 - Partly cloudy 10 - - - -
22/08:30pm 8.9 SW 8 9 1030.4 - 0.0 - Partly cloudy 10 - - - -
22/08:00pm 10.5 SW 9 11 1030.2 - 0.0 - Partly cloudy 10 - - - -
22/07:30pm 11.1 W 7 10 1029.9 - 0.0 - Cloudy 10 - - - -
22/07:00pm 10.8 W 6 8 1029.6 - 0.0 - Cloudy 10 - - - -
22/06:30pm 9.5 WNW 5 6 1029.4 - 0.0 - Partly cloudy 10 - - - -
22/06:00pm 9.6 W 3 3 1029.3 - 0.0 - Cloudy 10 - - - -
22/05:30pm 9.6 NW 3 4 1029.1 - 0.0 - Partly cloudy 10 - - - -
22/05:00pm 10.2 W 4 4 1029.0 - 0.0 - Partly cloudy 10 - - - -
22/04:30pm 12.4 W 3 4 1028.8 - 0.0 - Partly cloudy 10 - - - -
22/04:00pm 13.1 W 3 3 1028.6 - 0.0 - Partly cloudy 10 - - - -
22/03:30pm 13.3 SSW 4 5 1028.4 - 0.0 - Partly cloudy 10 - - - -
22/03:00pm 13.4 SSW 6 7 1028.2 - 0.0 - Mostly cloudy 10 - - - -
22/02:30pm 14.3 SW 9 11 1027.9 - 0.0 - Partly cloudy 10 - - - -
22/02:00pm 13.9 SW 9 12 1027.9 - 0.0 - Cloudy 10 - - - -
22/01:30pm 13.9 SW 6 9 1028.0 - 0.0 - Cloudy 10 - - - -
22/01:00pm 14.3 SW 7 9 1027.9 - 0.0 - Cloudy 10 - - - -
22/12:30pm 13.5 SW 5 7 1028.2 - 0.0 - Partly cloudy 10 - - - -
22/12:00pm 13.6 SW 7 9 1028.5 - 0.0 - Cloudy 10 - - - -
22/11:30am 12.8 WNW 4 7 1028.8 - 0.0 - Partly cloudy 10 - - - -
22/11:00am 12.2 W 5 7 1029.2 - 0.0 - Partly cloudy 10 - - - -
22/10:30am 11.3 WSW 7 9 1029.3 - 0.0 - Partly cloudy 10 - - - -
22/10:00am 11.5 SW 7 11 1029.1 - 0.0 - Cloudy 10 - - - -

Other Formats:

Comma delimited format used in spreadsheet applications
http://www.bom.gov.au/fwo/IDV60701/IDV60701.94912.axf

JavaScript Object Notation format (JSON) in row-major order
http://www.bom.gov.au/fwo/IDV60701/IDV60701.94912.json